sensor_id;sensor_type;location;lat;lon;timestamp;temperature;humidity
56268;DHT22;42175;46.930;9.532;2023-09-08T00:00:00;25.30;68.30
56268;DHT22;42175;46.930;9.532;2023-09-08T00:02:27;25.30;68.10
56268;DHT22;42175;46.930;9.532;2023-09-08T00:04:53;25.30;68.10
56268;DHT22;42175;46.930;9.532;2023-09-08T00:07:19;25.30;68.20
56268;DHT22;42175;46.930;9.532;2023-09-08T00:09:45;25.30;68.20
56268;DHT22;42175;46.930;9.532;2023-09-08T00:12:11;25.30;68.10
56268;DHT22;42175;46.930;9.532;2023-09-08T00:14:38;25.30;68.00
56268;DHT22;42175;46.930;9.532;2023-09-08T00:17:04;25.30;68.00
56268;DHT22;42175;46.930;9.532;2023-09-08T00:19:30;25.30;68.10
56268;DHT22;42175;46.930;9.532;2023-09-08T00:21:56;25.30;68.10
56268;DHT22;42175;46.930;9.532;2023-09-08T00:24:22;25.30;68.00
56268;DHT22;42175;46.930;9.532;2023-09-08T00:26:48;25.30;68.00
56268;DHT22;42175;46.930;9.532;2023-09-08T00:29:14;25.30;68.00
56268;DHT22;42175;46.930;9.532;2023-09-08T00:31:39;25.30;68.00
56268;DHT22;42175;46.930;9.532;2023-09-08T00:34:06;25.30;68.00
56268;DHT22;42175;46.930;9.532;2023-09-08T00:36:32;25.30;68.00
56268;DHT22;42175;46.930;9.532;2023-09-08T00:38:58;25.30;68.00
56268;DHT22;42175;46.930;9.532;2023-09-08T00:41:23;25.30;68.00
56268;DHT22;42175;46.930;9.532;2023-09-08T00:43:50;25.30;67.90
56268;DHT22;42175;46.930;9.532;2023-09-08T00:46:17;25.30;68.00
56268;DHT22;42175;46.930;9.532;2023-09-08T00:48:43;25.30;67.80
56268;DHT22;42175;46.930;9.532;2023-09-08T00:51:09;25.30;67.90
56268;DHT22;42175;46.930;9.532;2023-09-08T00:53:38;25.30;67.80
56268;DHT22;42175;46.930;9.532;2023-09-08T00:56:04;25.30;67.70
56268;DHT22;42175;46.930;9.532;2023-09-08T00:58:31;25.30;67.60
56268;DHT22;42175;46.930;9.532;2023-09-08T01:00:56;25.30;67.40
56268;DHT22;42175;46.930;9.532;2023-09-08T01:03:24;25.30;67.30
56268;DHT22;42175;46.930;9.532;2023-09-08T01:05:50;25.30;67.30
56268;DHT22;42175;46.930;9.532;2023-09-08T01:08:17;25.30;67.20
56268;DHT22;42175;46.930;9.532;2023-09-08T01:10:43;25.30;67.20
56268;DHT22;42175;46.930;9.532;2023-09-08T01:13:10;25.30;67.20
56268;DHT22;42175;46.930;9.532;2023-09-08T01:15:36;25.30;67.10
56268;DHT22;42175;46.930;9.532;2023-09-08T01:18:02;25.30;67.00
56268;DHT22;42175;46.930;9.532;2023-09-08T01:29:41;25.30;67.00
56268;DHT22;42175;46.930;9.532;2023-09-08T01:32:07;25.30;66.90
56268;DHT22;42175;46.930;9.532;2023-09-08T01:34:36;25.30;66.90
56268;DHT22;42175;46.930;9.532;2023-09-08T01:37:06;25.30;66.90
56268;DHT22;42175;46.930;9.532;2023-09-08T01:39:32;25.30;66.80
56268;DHT22;42175;46.930;9.532;2023-09-08T01:41:58;25.30;66.80
56268;DHT22;42175;46.930;9.532;2023-09-08T01:44:24;25.30;66.80
56268;DHT22;42175;46.930;9.532;2023-09-08T01:46:49;25.30;66.80
56268;DHT22;42175;46.930;9.532;2023-09-08T01:49:16;25.30;66.80
56268;DHT22;42175;46.930;9.532;2023-09-08T01:51:42;25.30;66.90
56268;DHT22;42175;46.930;9.532;2023-09-08T01:54:08;25.30;66.80
56268;DHT22;42175;46.930;9.532;2023-09-08T01:56:35;25.30;66.90
56268;DHT22;42175;46.930;9.532;2023-09-08T01:59:01;25.30;66.70
56268;DHT22;42175;46.930;9.532;2023-09-08T02:01:26;25.20;66.60
56268;DHT22;42175;46.930;9.532;2023-09-08T02:03:52;25.30;66.60
56268;DHT22;42175;46.930;9.532;2023-09-08T02:06:18;25.30;66.60
56268;DHT22;42175;46.930;9.532;2023-09-08T02:08:43;25.20;66.50
56268;DHT22;42175;46.930;9.532;2023-09-08T02:11:09;25.30;66.50
56268;DHT22;42175;46.930;9.532;2023-09-08T02:13:35;25.30;66.50
56268;DHT22;42175;46.930;9.532;2023-09-08T02:16:01;25.30;66.40
56268;DHT22;42175;46.930;9.532;2023-09-08T02:18:26;25.30;66.50
56268;DHT22;42175;46.930;9.532;2023-09-08T02:20:54;25.30;66.50
56268;DHT22;42175;46.930;9.532;2023-09-08T02:23:19;25.30;66.40
56268;DHT22;42175;46.930;9.532;2023-09-08T02:25:45;25.20;66.30
56268;DHT22;42175;46.930;9.532;2023-09-08T02:28:11;25.20;66.30
56268;DHT22;42175;46.930;9.532;2023-09-08T02:30:37;25.30;66.30
56268;DHT22;42175;46.930;9.532;2023-09-08T02:33:02;25.30;66.20
56268;DHT22;42175;46.930;9.532;2023-09-08T02:35:28;25.20;66.10
56268;DHT22;42175;46.930;9.532;2023-09-08T02:37:54;25.20;66.10
56268;DHT22;42175;46.930;9.532;2023-09-08T02:40:20;25.20;66.10
56268;DHT22;42175;46.930;9.532;2023-09-08T02:42:46;25.30;66.10
56268;DHT22;42175;46.930;9.532;2023-09-08T02:45:12;25.30;66.20
56268;DHT22;42175;46.930;9.532;2023-09-08T02:47:37;25.20;66.10
56268;DHT22;42175;46.930;9.532;2023-09-08T02:50:03;25.30;66.30
56268;DHT22;42175;46.930;9.532;2023-09-08T02:52:30;25.20;66.10
56268;DHT22;42175;46.930;9.532;2023-09-08T02:54:55;25.30;66.10
56268;DHT22;42175;46.930;9.532;2023-09-08T02:57:22;25.20;66.00
56268;DHT22;42175;46.930;9.532;2023-09-08T02:59:50;25.20;66.00
56268;DHT22;42175;46.930;9.532;2023-09-08T03:02:17;25.30;66.00
56268;DHT22;42175;46.930;9.532;2023-09-08T03:04:43;25.20;65.90
56268;DHT22;42175;46.930;9.532;2023-09-08T03:07:08;25.20;65.90
56268;DHT22;42175;46.930;9.532;2023-09-08T03:09:34;25.20;65.80
56268;DHT22;42175;46.930;9.532;2023-09-08T03:12:00;25.20;65.80
56268;DHT22;42175;46.930;9.532;2023-09-08T03:14:26;25.20;65.90
56268;DHT22;42175;46.930;9.532;2023-09-08T03:16:51;25.20;65.80
56268;DHT22;42175;46.930;9.532;2023-09-08T03:19:18;25.20;65.80
56268;DHT22;42175;46.930;9.532;2023-09-08T03:21:43;25.20;65.70
56268;DHT22;42175;46.930;9.532;2023-09-08T03:24:09;25.20;65.70
56268;DHT22;42175;46.930;9.532;2023-09-08T03:26:35;25.20;65.70
56268;DHT22;42175;46.930;9.532;2023-09-08T03:29:01;25.20;65.70
56268;DHT22;42175;46.930;9.532;2023-09-08T03:31:26;25.20;65.70
56268;DHT22;42175;46.930;9.532;2023-09-08T03:33:53;25.20;65.70
56268;DHT22;42175;46.930;9.532;2023-09-08T03:36:18;25.20;65.60
56268;DHT22;42175;46.930;9.532;2023-09-08T03:38:44;25.20;65.60
56268;DHT22;42175;46.930;9.532;2023-09-08T03:41:10;25.20;65.60
56268;DHT22;42175;46.930;9.532;2023-09-08T03:43:36;25.20;65.60
56268;DHT22;42175;46.930;9.532;2023-09-08T03:46:02;25.20;65.60
56268;DHT22;42175;46.930;9.532;2023-09-08T03:48:28;25.20;66.20
56268;DHT22;42175;46.930;9.532;2023-09-08T03:50:54;25.20;65.50
56268;DHT22;42175;46.930;9.532;2023-09-08T03:53:19;25.20;65.50
56268;DHT22;42175;46.930;9.532;2023-09-08T03:55:45;25.20;65.40
56268;DHT22;42175;46.930;9.532;2023-09-08T03:58:11;25.20;65.40
56268;DHT22;42175;46.930;9.532;2023-09-08T04:00:37;25.20;65.40
56268;DHT22;42175;46.930;9.532;2023-09-08T04:03:03;25.20;65.40
56268;DHT22;42175;46.930;9.532;2023-09-08T04:05:29;25.20;65.40
56268;DHT22;42175;46.930;9.532;2023-09-08T04:07:54;25.20;65.70
56268;DHT22;42175;46.930;9.532;2023-09-08T04:10:20;25.20;65.80
56268;DHT22;42175;46.930;9.532;2023-09-08T04:12:46;25.20;66.60
56268;DHT22;42175;46.930;9.532;2023-09-08T04:15:12;25.20;66.10
56268;DHT22;42175;46.930;9.532;2023-09-08T04:17:37;25.20;66.30
56268;DHT22;42175;46.930;9.532;2023-09-08T04:20:04;25.20;66.40
56268;DHT22;42175;46.930;9.532;2023-09-08T04:22:31;25.00;63.00
56268;DHT22;42175;46.930;9.532;2023-09-08T04:24:57;24.60;62.60
56268;DHT22;42175;46.930;9.532;2023-09-08T04:27:24;24.50;62.60
56268;DHT22;42175;46.930;9.532;2023-09-08T04:29:49;24.40;63.80
56268;DHT22;42175;46.930;9.532;2023-09-08T04:32:15;24.20;62.90
56268;DHT22;42175;46.930;9.532;2023-09-08T04:34:42;24.10;63.20
56268;DHT22;42175;46.930;9.532;2023-09-08T04:37:08;24.00;63.30
56268;DHT22;42175;46.930;9.532;2023-09-08T04:39:35;24.10;63.30
56268;DHT22;42175;46.930;9.532;2023-09-08T04:42:03;24.00;63.20
56268;DHT22;42175;46.930;9.532;2023-09-08T04:44:28;24.00;63.20
56268;DHT22;42175;46.930;9.532;2023-09-08T04:46:54;23.80;63.80
56268;DHT22;42175;46.930;9.532;2023-09-08T04:49:21;23.60;64.30
56268;DHT22;42175;46.930;9.532;2023-09-08T04:51:46;23.70;63.80
56268;DHT22;42175;46.930;9.532;2023-09-08T04:54:12;23.60;64.30
56268;DHT22;42175;46.930;9.532;2023-09-08T04:56:39;23.70;64.20
56268;DHT22;42175;46.930;9.532;2023-09-08T04:59:06;23.80;63.70
56268;DHT22;42175;46.930;9.532;2023-09-08T05:01:32;23.90;63.10
56268;DHT22;42175;46.930;9.532;2023-09-08T05:04:00;23.70;63.20
56268;DHT22;42175;46.930;9.532;2023-09-08T05:06:26;23.60;63.60
56268;DHT22;42175;46.930;9.532;2023-09-08T05:08:52;23.40;64.00
56268;DHT22;42175;46.930;9.532;2023-09-08T05:11:17;23.30;64.60
56268;DHT22;42175;46.930;9.532;2023-09-08T05:13:46;23.40;64.30
56268;DHT22;42175;46.930;9.532;2023-09-08T05:16:12;23.40;64.10
56268;DHT22;42175;46.930;9.532;2023-09-08T05:18:41;23.50;64.10
56268;DHT22;42175;46.930;9.532;2023-09-08T05:21:07;23.50;64.00
56268;DHT22;42175;46.930;9.532;2023-09-08T05:23:33;23.60;64.00
56268;DHT22;42175;46.930;9.532;2023-09-08T05:25:59;23.50;63.90
56268;DHT22;42175;46.930;9.532;2023-09-08T05:28:25;23.40;64.10
56268;DHT22;42175;46.930;9.532;2023-09-08T05:30:52;23.40;64.10
56268;DHT22;42175;46.930;9.532;2023-09-08T05:33:18;23.40;64.50
56268;DHT22;42175;46.930;9.532;2023-09-08T05:35:45;23.20;64.80
56268;DHT22;42175;46.930;9.532;2023-09-08T05:38:12;23.10;65.30
56268;DHT22;42175;46.930;9.532;2023-09-08T05:40:37;23.30;65.20
56268;DHT22;42175;46.930;9.532;2023-09-08T05:43:03;23.40;64.70
56268;DHT22;42175;46.930;9.532;2023-09-08T05:45:32;23.40;64.50
56268;DHT22;42175;46.930;9.532;2023-09-08T05:47:58;23.30;64.40
56268;DHT22;42175;46.930;9.532;2023-09-08T05:50:23;23.40;64.30
56268;DHT22;42175;46.930;9.532;2023-09-08T05:52:50;23.40;64.50
56268;DHT22;42175;46.930;9.532;2023-09-08T05:55:16;23.40;64.60
56268;DHT22;42175;46.930;9.532;2023-09-08T05:57:42;23.30;64.80
56268;DHT22;42175;46.930;9.532;2023-09-08T06:00:07;23.20;65.50
56268;DHT22;42175;46.930;9.532;2023-09-08T06:02:34;23.10;65.70
56268;DHT22;42175;46.930;9.532;2023-09-08T06:05:00;23.20;65.80
56268;DHT22;42175;46.930;9.532;2023-09-08T06:07:25;23.10;66.20
56268;DHT22;42175;46.930;9.532;2023-09-08T06:09:51;23.10;66.10
56268;DHT22;42175;46.930;9.532;2023-09-08T06:12:17;23.10;66.00
56268;DHT22;42175;46.930;9.532;2023-09-08T06:14:43;23.10;65.90
56268;DHT22;42175;46.930;9.532;2023-09-08T06:17:09;23.00;65.50
56268;DHT22;42175;46.930;9.532;2023-09-08T06:19:35;23.00;66.00
56268;DHT22;42175;46.930;9.532;2023-09-08T06:22:01;22.90;66.00
56268;DHT22;42175;46.930;9.532;2023-09-08T06:24:26;23.10;65.80
56268;DHT22;42175;46.930;9.532;2023-09-08T06:26:52;23.10;65.80
56268;DHT22;42175;46.930;9.532;2023-09-08T06:29:18;23.20;65.30
56268;DHT22;42175;46.930;9.532;2023-09-08T06:31:43;23.30;65.00
56268;DHT22;42175;46.930;9.532;2023-09-08T06:34:09;23.20;65.00
56268;DHT22;42175;46.930;9.532;2023-09-08T06:36:35;23.30;65.10
56268;DHT22;42175;46.930;9.532;2023-09-08T06:39:02;23.30;65.30
56268;DHT22;42175;46.930;9.532;2023-09-08T06:41:28;23.40;65.00
56268;DHT22;42175;46.930;9.532;2023-09-08T06:43:54;23.40;64.90
56268;DHT22;42175;46.930;9.532;2023-09-08T06:46:20;23.30;65.00
56268;DHT22;42175;46.930;9.532;2023-09-08T06:48:45;23.50;64.70
56268;DHT22;42175;46.930;9.532;2023-09-08T06:51:11;23.50;64.20
56268;DHT22;42175;46.930;9.532;2023-09-08T06:53:37;23.50;64.20
56268;DHT22;42175;46.930;9.532;2023-09-08T06:56:03;23.40;64.30
56268;DHT22;42175;46.930;9.532;2023-09-08T06:58:28;23.30;64.20
56268;DHT22;42175;46.930;9.532;2023-09-08T07:00:54;23.30;64.30
56268;DHT22;42175;46.930;9.532;2023-09-08T07:03:20;23.30;64.10
56268;DHT22;42175;46.930;9.532;2023-09-08T07:05:50;23.40;63.50
56268;DHT22;42175;46.930;9.532;2023-09-08T07:08:16;23.50;63.60
56268;DHT22;42175;46.930;9.532;2023-09-08T07:10:44;23.30;63.20
56268;DHT22;42175;46.930;9.532;2023-09-08T07:13:10;23.30;63.90
56268;DHT22;42175;46.930;9.532;2023-09-08T07:15:36;23.40;63.70
56268;DHT22;42175;46.930;9.532;2023-09-08T07:18:02;23.60;63.60
56268;DHT22;42175;46.930;9.532;2023-09-08T07:20:27;23.60;63.70
56268;DHT22;42175;46.930;9.532;2023-09-08T07:22:53;23.50;63.70
56268;DHT22;42175;46.930;9.532;2023-09-08T07:25:19;23.40;63.60
56268;DHT22;42175;46.930;9.532;2023-09-08T07:27:46;23.50;63.60
56268;DHT22;42175;46.930;9.532;2023-09-08T07:30:12;23.70;63.50
56268;DHT22;42175;46.930;9.532;2023-09-08T07:32:37;23.70;63.20
56268;DHT22;42175;46.930;9.532;2023-09-08T07:35:03;23.70;62.90
56268;DHT22;42175;46.930;9.532;2023-09-08T07:37:29;23.60;63.20
56268;DHT22;42175;46.930;9.532;2023-09-08T07:39:55;23.80;63.00
56268;DHT22;42175;46.930;9.532;2023-09-08T07:42:20;23.70;62.10
56268;DHT22;42175;46.930;9.532;2023-09-08T07:44:47;23.70;62.20
56268;DHT22;42175;46.930;9.532;2023-09-08T07:47:13;23.70;61.90
56268;DHT22;42175;46.930;9.532;2023-09-08T07:49:38;23.70;62.10
56268;DHT22;42175;46.930;9.532;2023-09-08T07:52:04;23.80;62.20
56268;DHT22;42175;46.930;9.532;2023-09-08T07:54:32;23.80;62.50
56268;DHT22;42175;46.930;9.532;2023-09-08T07:56:58;23.80;62.60
56268;DHT22;42175;46.930;9.532;2023-09-08T07:59:24;24.00;62.10
56268;DHT22;42175;46.930;9.532;2023-09-08T08:01:49;23.90;61.80
56268;DHT22;42175;46.930;9.532;2023-09-08T08:04:16;23.80;61.90
56268;DHT22;42175;46.930;9.532;2023-09-08T08:06:41;23.80;62.30
56268;DHT22;42175;46.930;9.532;2023-09-08T08:09:07;24.00;62.00
56268;DHT22;42175;46.930;9.532;2023-09-08T08:11:34;23.90;61.90
56268;DHT22;42175;46.930;9.532;2023-09-08T08:14:00;23.90;62.10
56268;DHT22;42175;46.930;9.532;2023-09-08T08:16:26;24.00;61.70
56268;DHT22;42175;46.930;9.532;2023-09-08T08:18:52;24.00;62.00
56268;DHT22;42175;46.930;9.532;2023-09-08T08:21:18;24.10;61.90
56268;DHT22;42175;46.930;9.532;2023-09-08T08:23:43;24.20;62.00
56268;DHT22;42175;46.930;9.532;2023-09-08T08:26:09;24.30;61.90
56268;DHT22;42175;46.930;9.532;2023-09-08T08:28:35;24.30;61.40
56268;DHT22;42175;46.930;9.532;2023-09-08T08:31:01;24.30;61.50
56268;DHT22;42175;46.930;9.532;2023-09-08T08:33:26;24.40;61.80
56268;DHT22;42175;46.930;9.532;2023-09-08T08:35:53;24.40;60.70
56268;DHT22;42175;46.930;9.532;2023-09-08T08:38:19;24.40;61.20
56268;DHT22;42175;46.930;9.532;2023-09-08T08:40:45;24.40;61.30
56268;DHT22;42175;46.930;9.532;2023-09-08T08:43:11;24.50;61.20
56268;DHT22;42175;46.930;9.532;2023-09-08T08:45:38;24.50;61.00
56268;DHT22;42175;46.930;9.532;2023-09-08T08:48:05;24.60;61.10
56268;DHT22;42175;46.930;9.532;2023-09-08T08:50:35;24.60;61.10
56268;DHT22;42175;46.930;9.532;2023-09-08T08:53:01;24.60;61.10
56268;DHT22;42175;46.930;9.532;2023-09-08T08:55:30;24.60;61.30
56268;DHT22;42175;46.930;9.532;2023-09-08T08:58:03;24.60;61.00
56268;DHT22;42175;46.930;9.532;2023-09-08T09:00:29;24.70;61.00
56268;DHT22;42175;46.930;9.532;2023-09-08T09:02:55;24.70;60.50
56268;DHT22;42175;46.930;9.532;2023-09-08T09:05:24;24.70;60.30
56268;DHT22;42175;46.930;9.532;2023-09-08T09:07:50;24.60;59.20
56268;DHT22;42175;46.930;9.532;2023-09-08T09:10:16;24.50;59.00
56268;DHT22;42175;46.930;9.532;2023-09-08T09:12:42;24.60;59.70
56268;DHT22;42175;46.930;9.532;2023-09-08T09:15:08;24.50;59.60
56268;DHT22;42175;46.930;9.532;2023-09-08T09:17:35;24.50;60.30
56268;DHT22;42175;46.930;9.532;2023-09-08T09:20:14;24.60;60.20
56268;DHT22;42175;46.930;9.532;2023-09-08T09:22:40;24.70;60.40
56268;DHT22;42175;46.930;9.532;2023-09-08T09:25:06;24.70;60.10
56268;DHT22;42175;46.930;9.532;2023-09-08T09:27:34;24.80;60.30
56268;DHT22;42175;46.930;9.532;2023-09-08T09:30:03;24.80;60.40
56268;DHT22;42175;46.930;9.532;2023-09-08T09:32:29;24.80;60.80
56268;DHT22;42175;46.930;9.532;2023-09-08T09:34:57;24.80;60.50
56268;DHT22;42175;46.930;9.532;2023-09-08T09:37:27;24.80;60.60
56268;DHT22;42175;46.930;9.532;2023-09-08T09:39:54;24.90;60.60
56268;DHT22;42175;46.930;9.532;2023-09-08T09:42:20;24.90;60.40
56268;DHT22;42175;46.930;9.532;2023-09-08T09:44:47;24.90;60.40
56268;DHT22;42175;46.930;9.532;2023-09-08T09:47:14;24.90;60.50
56268;DHT22;42175;46.930;9.532;2023-09-08T09:49:50;24.90;60.40
56268;DHT22;42175;46.930;9.532;2023-09-08T09:52:23;24.90;59.80
56268;DHT22;42175;46.930;9.532;2023-09-08T09:54:53;25.00;60.10
56268;DHT22;42175;46.930;9.532;2023-09-08T09:57:21;25.00;60.10
56268;DHT22;42175;46.930;9.532;2023-09-08T09:59:48;25.00;60.20
56268;DHT22;42175;46.930;9.532;2023-09-08T10:02:17;25.00;60.20
56268;DHT22;42175;46.930;9.532;2023-09-08T10:04:50;25.00;59.80
56268;DHT22;42175;46.930;9.532;2023-09-08T10:07:16;25.00;59.30
56268;DHT22;42175;46.930;9.532;2023-09-08T10:09:43;25.10;58.60
56268;DHT22;42175;46.930;9.532;2023-09-08T10:12:09;25.10;59.10
56268;DHT22;42175;46.930;9.532;2023-09-08T10:14:41;25.10;59.50
56268;DHT22;42175;46.930;9.532;2023-09-08T10:17:12;25.20;59.00
56268;DHT22;42175;46.930;9.532;2023-09-08T10:19:40;25.20;59.20
56268;DHT22;42175;46.930;9.532;2023-09-08T10:22:11;25.30;58.80
56268;DHT22;42175;46.930;9.532;2023-09-08T10:24:38;25.20;59.10
56268;DHT22;42175;46.930;9.532;2023-09-08T10:27:09;25.20;59.30
56268;DHT22;42175;46.930;9.532;2023-09-08T10:29:36;25.20;59.80
56268;DHT22;42175;46.930;9.532;2023-09-08T10:32:03;25.20;59.10
56268;DHT22;42175;46.930;9.532;2023-09-08T10:34:31;25.20;59.00
56268;DHT22;42175;46.930;9.532;2023-09-08T10:36:58;25.20;59.20
56268;DHT22;42175;46.930;9.532;2023-09-08T10:39:36;25.20;59.70
56268;DHT22;42175;46.930;9.532;2023-09-08T10:47:30;25.30;60.30
56268;DHT22;42175;46.930;9.532;2023-09-08T10:49:56;25.40;59.80
56268;DHT22;42175;46.930;9.532;2023-09-08T10:52:23;25.40;59.90
56268;DHT22;42175;46.930;9.532;2023-09-08T10:54:54;25.40;59.70
56268;DHT22;42175;46.930;9.532;2023-09-08T10:57:22;25.50;60.00
56268;DHT22;42175;46.930;9.532;2023-09-08T10:59:55;25.50;59.70
56268;DHT22;42175;46.930;9.532;2023-09-08T11:05:00;25.50;59.70
56268;DHT22;42175;46.930;9.532;2023-09-08T11:07:26;25.60;59.80
56268;DHT22;42175;46.930;9.532;2023-09-08T11:09:52;25.50;60.00
56268;DHT22;42175;46.930;9.532;2023-09-08T11:12:17;25.50;60.30
56268;DHT22;42175;46.930;9.532;2023-09-08T11:14:43;25.50;61.00
56268;DHT22;42175;46.930;9.532;2023-09-08T11:17:09;25.50;60.20
56268;DHT22;42175;46.930;9.532;2023-09-08T11:19:48;25.60;60.50
56268;DHT22;42175;46.930;9.532;2023-09-08T11:22:17;25.60;60.40
56268;DHT22;42175;46.930;9.532;2023-09-08T11:24:44;25.60;60.90
56268;DHT22;42175;46.930;9.532;2023-09-08T11:27:11;25.60;61.10
56268;DHT22;42175;46.930;9.532;2023-09-08T11:29:37;25.60;61.00
56268;DHT22;42175;46.930;9.532;2023-09-08T11:32:09;25.60;61.10
56268;DHT22;42175;46.930;9.532;2023-09-08T11:34:35;25.60;60.80
56268;DHT22;42175;46.930;9.532;2023-09-08T11:37:15;25.60;61.10
56268;DHT22;42175;46.930;9.532;2023-09-08T11:39:44;25.70;61.30
56268;DHT22;42175;46.930;9.532;2023-09-08T11:42:12;25.70;60.80
56268;DHT22;42175;46.930;9.532;2023-09-08T11:44:38;25.70;61.30
56268;DHT22;42175;46.930;9.532;2023-09-08T11:47:06;25.70;61.80
56268;DHT22;42175;46.930;9.532;2023-09-08T11:49:37;25.80;62.20
56268;DHT22;42175;46.930;9.532;2023-09-08T11:52:03;25.90;62.60
56268;DHT22;42175;46.930;9.532;2023-09-08T11:54:31;26.00;62.80
56268;DHT22;42175;46.930;9.532;2023-09-08T11:57:02;26.10;62.50
56268;DHT22;42175;46.930;9.532;2023-09-08T11:59:30;26.10;62.70
56268;DHT22;42175;46.930;9.532;2023-09-08T12:01:57;26.20;63.40
56268;DHT22;42175;46.930;9.532;2023-09-08T12:04:23;26.10;63.80
56268;DHT22;42175;46.930;9.532;2023-09-08T12:06:51;26.10;63.10
56268;DHT22;42175;46.930;9.532;2023-09-08T12:09:17;26.30;64.10
56268;DHT22;42175;46.930;9.532;2023-09-08T12:11:43;26.30;64.00
56268;DHT22;42175;46.930;9.532;2023-09-08T12:14:11;26.30;63.80
56268;DHT22;42175;46.930;9.532;2023-09-08T12:16:38;26.20;64.80
56268;DHT22;42175;46.930;9.532;2023-09-08T12:19:04;26.30;63.40
56268;DHT22;42175;46.930;9.532;2023-09-08T12:21:30;26.20;64.50
56268;DHT22;42175;46.930;9.532;2023-09-08T12:23:57;26.40;64.40
56268;DHT22;42175;46.930;9.532;2023-09-08T12:26:27;26.30;63.60
56268;DHT22;42175;46.930;9.532;2023-09-08T12:28:53;26.40;63.00
56268;DHT22;42175;46.930;9.532;2023-09-08T12:31:19;26.40;61.80
56268;DHT22;42175;46.930;9.532;2023-09-08T12:33:46;26.30;62.40
56268;DHT22;42175;46.930;9.532;2023-09-08T12:38:41;26.20;62.80
56268;DHT22;42175;46.930;9.532;2023-09-08T12:41:12;26.30;63.70
56268;DHT22;42175;46.930;9.532;2023-09-08T12:43:37;26.40;63.60
56268;DHT22;42175;46.930;9.532;2023-09-08T12:46:03;26.40;63.00
56268;DHT22;42175;46.930;9.532;2023-09-08T12:48:28;26.40;63.10
56268;DHT22;42175;46.930;9.532;2023-09-08T12:50:54;26.30;64.00
56268;DHT22;42175;46.930;9.532;2023-09-08T12:53:20;26.30;64.20
56268;DHT22;42175;46.930;9.532;2023-09-08T12:55:47;26.30;63.80
56268;DHT22;42175;46.930;9.532;2023-09-08T12:58:13;26.20;64.50
56268;DHT22;42175;46.930;9.532;2023-09-08T13:00:39;26.20;64.00
56268;DHT22;42175;46.930;9.532;2023-09-08T13:03:04;26.20;64.50
56268;DHT22;42175;46.930;9.532;2023-09-08T13:05:30;26.20;64.60
56268;DHT22;42175;46.930;9.532;2023-09-08T13:07:56;26.20;64.40
56268;DHT22;42175;46.930;9.532;2023-09-08T13:10:22;26.30;65.50
56268;DHT22;42175;46.930;9.532;2023-09-08T13:12:48;26.30;65.00
56268;DHT22;42175;46.930;9.532;2023-09-08T13:15:14;26.60;64.30
56268;DHT22;42175;46.930;9.532;2023-09-08T13:17:40;26.50;64.60
56268;DHT22;42175;46.930;9.532;2023-09-08T13:20:07;26.60;64.10
56268;DHT22;42175;46.930;9.532;2023-09-08T13:22:33;26.50;64.80
56268;DHT22;42175;46.930;9.532;2023-09-08T13:24:59;26.50;64.30
56268;DHT22;42175;46.930;9.532;2023-09-08T13:27:24;26.50;64.00
56268;DHT22;42175;46.930;9.532;2023-09-08T13:29:50;26.40;64.30
56268;DHT22;42175;46.930;9.532;2023-09-08T13:32:16;26.40;64.60
56268;DHT22;42175;46.930;9.532;2023-09-08T13:34:42;26.40;64.70
56268;DHT22;42175;46.930;9.532;2023-09-08T13:37:09;26.40;65.10
56268;DHT22;42175;46.930;9.532;2023-09-08T13:39:35;26.50;64.30
56268;DHT22;42175;46.930;9.532;2023-09-08T13:42:02;26.40;64.30
56268;DHT22;42175;46.930;9.532;2023-09-08T13:44:28;26.40;64.20
56268;DHT22;42175;46.930;9.532;2023-09-08T13:46:54;26.40;64.40
56268;DHT22;42175;46.930;9.532;2023-09-08T13:49:21;26.40;64.60
56268;DHT22;42175;46.930;9.532;2023-09-08T13:51:48;26.40;63.90
56268;DHT22;42175;46.930;9.532;2023-09-08T13:54:16;26.40;64.10
56268;DHT22;42175;46.930;9.532;2023-09-08T13:56:42;26.50;63.60
56268;DHT22;42175;46.930;9.532;2023-09-08T13:59:08;26.50;64.00
56268;DHT22;42175;46.930;9.532;2023-09-08T14:01:38;26.40;63.90
56268;DHT22;42175;46.930;9.532;2023-09-08T14:04:04;26.50;64.50
56268;DHT22;42175;46.930;9.532;2023-09-08T14:06:32;26.40;63.90
56268;DHT22;42175;46.930;9.532;2023-09-08T14:08:58;26.40;64.30
56268;DHT22;42175;46.930;9.532;2023-09-08T14:11:24;26.40;64.40
56268;DHT22;42175;46.930;9.532;2023-09-08T14:13:49;26.40;64.90
56268;DHT22;42175;46.930;9.532;2023-09-08T14:16:18;26.40;64.70
56268;DHT22;42175;46.930;9.532;2023-09-08T14:18:44;26.50;64.50
56268;DHT22;42175;46.930;9.532;2023-09-08T14:21:10;26.50;64.50
56268;DHT22;42175;46.930;9.532;2023-09-08T14:23:35;26.40;65.10
56268;DHT22;42175;46.930;9.532;2023-09-08T14:26:02;26.40;65.00
56268;DHT22;42175;46.930;9.532;2023-09-08T14:28:29;26.40;65.20
56268;DHT22;42175;46.930;9.532;2023-09-08T14:30:57;26.40;66.10
56268;DHT22;42175;46.930;9.532;2023-09-08T14:33:23;26.40;66.00
56268;DHT22;42175;46.930;9.532;2023-09-08T14:35:49;26.40;65.50
56268;DHT22;42175;46.930;9.532;2023-09-08T14:38:24;26.30;65.90
56268;DHT22;42175;46.930;9.532;2023-09-08T14:41:00;26.30;66.40
56268;DHT22;42175;46.930;9.532;2023-09-08T14:43:28;26.20;66.70
56268;DHT22;42175;46.930;9.532;2023-09-08T14:45:54;26.20;67.50
56268;DHT22;42175;46.930;9.532;2023-09-08T14:48:22;26.10;67.50
56268;DHT22;42175;46.930;9.532;2023-09-08T14:50:48;26.10;67.60
56268;DHT22;42175;46.930;9.532;2023-09-08T14:53:14;26.10;67.60
56268;DHT22;42175;46.930;9.532;2023-09-08T14:55:40;26.10;67.70
56268;DHT22;42175;46.930;9.532;2023-09-08T14:58:06;26.10;67.30
56268;DHT22;42175;46.930;9.532;2023-09-08T15:00:32;26.10;67.40
56268;DHT22;42175;46.930;9.532;2023-09-08T15:02:58;26.00;68.00
56268;DHT22;42175;46.930;9.532;2023-09-08T15:05:23;26.00;68.30
56268;DHT22;42175;46.930;9.532;2023-09-08T15:07:49;26.00;68.60
56268;DHT22;42175;46.930;9.532;2023-09-08T15:10:15;26.00;68.40
56268;DHT22;42175;46.930;9.532;2023-09-08T15:12:41;26.00;68.70
56268;DHT22;42175;46.930;9.532;2023-09-08T15:15:07;25.90;68.80
56268;DHT22;42175;46.930;9.532;2023-09-08T15:17:33;25.90;69.20
56268;DHT22;42175;46.930;9.532;2023-09-08T15:19:59;25.90;69.40
56268;DHT22;42175;46.930;9.532;2023-09-08T15:22:25;25.90;69.60
56268;DHT22;42175;46.930;9.532;2023-09-08T15:24:51;25.90;69.70
56268;DHT22;42175;46.930;9.532;2023-09-08T15:27:17;25.90;69.90
56268;DHT22;42175;46.930;9.532;2023-09-08T15:29:42;25.90;70.00
56268;DHT22;42175;46.930;9.532;2023-09-08T15:32:08;25.80;69.90
56268;DHT22;42175;46.930;9.532;2023-09-08T15:34:34;25.90;70.00
56268;DHT22;42175;46.930;9.532;2023-09-08T15:37:00;25.80;70.10
56268;DHT22;42175;46.930;9.532;2023-09-08T15:39:26;25.80;70.00
56268;DHT22;42175;46.930;9.532;2023-09-08T15:41:52;25.80;70.30
56268;DHT22;42175;46.930;9.532;2023-09-08T15:44:18;25.80;70.30